sensor_id;sensor_type;location;lat;lon;timestamp;P1;durP1;ratioP1;P2;durP2;ratioP2
68989;SDS011;56046;47.270;11.368;2022-12-18T00:00:55;14.07;;;5.13;;
68989;SDS011;56046;47.270;11.368;2022-12-18T00:03:21;14.80;;;4.77;;
68989;SDS011;56046;47.270;11.368;2022-12-18T00:05:47;14.47;;;5.60;;
68989;SDS011;56046;47.270;11.368;2022-12-18T00:08:12;13.10;;;5.13;;
68989;SDS011;56046;47.270;11.368;2022-12-18T00:10:38;13.63;;;5.23;;
68989;SDS011;56046;47.270;11.368;2022-12-18T00:13:03;15.60;;;4.93;;
68989;SDS011;56046;47.270;11.368;2022-12-18T00:15:28;16.73;;;5.87;;
68989;SDS011;56046;47.270;11.368;2022-12-18T00:17:53;18.03;;;6.13;;
68989;SDS011;56046;47.270;11.368;2022-12-18T00:20:19;16.67;;;5.53;;
68989;SDS011;56046;47.270;11.368;2022-12-18T00:22:50;13.57;;;5.35;;
68989;SDS011;56046;47.270;11.368;2022-12-18T00:25:15;12.97;;;5.17;;
68989;SDS011;56046;47.270;11.368;2022-12-18T00:27:41;14.23;;;5.63;;
68989;SDS011;56046;47.270;11.368;2022-12-18T00:30:06;13.40;;;5.43;;
68989;SDS011;56046;47.270;11.368;2022-12-18T00:32:32;15.00;;;5.10;;
68989;SDS011;56046;47.270;11.368;2022-12-18T00:34:57;14.65;;;5.43;;
68989;SDS011;56046;47.270;11.368;2022-12-18T00:37:22;12.50;;;5.33;;
68989;SDS011;56046;47.270;11.368;2022-12-18T00:39:48;13.57;;;4.63;;
68989;SDS011;56046;47.270;11.368;2022-12-18T00:42:14;16.63;;;4.82;;
68989;SDS011;56046;47.270;11.368;2022-12-18T00:44:58;14.05;;;5.32;;
68989;SDS011;56046;47.270;11.368;2022-12-18T00:47:23;16.17;;;6.40;;
68989;SDS011;56046;47.270;11.368;2022-12-18T00:49:48;11.53;;;4.37;;
68989;SDS011;56046;47.270;11.368;2022-12-18T00:52:13;12.97;;;4.93;;
68989;SDS011;56046;47.270;11.368;2022-12-18T00:54:39;14.47;;;4.67;;
68989;SDS011;56046;47.270;11.368;2022-12-18T00:57:04;16.23;;;5.73;;
68989;SDS011;56046;47.270;11.368;2022-12-18T00:59:29;16.80;;;5.07;;
68989;SDS011;56046;47.270;11.368;2022-12-18T01:01:55;14.87;;;3.73;;
68989;SDS011;56046;47.270;11.368;2022-12-18T01:04:20;14.03;;;5.93;;
68989;SDS011;56046;47.270;11.368;2022-12-18T01:06:46;14.27;;;4.50;;
68989;SDS011;56046;47.270;11.368;2022-12-18T01:09:11;11.40;;;5.20;;
68989;SDS011;56046;47.270;11.368;2022-12-18T01:11:36;18.43;;;6.27;;
68989;SDS011;56046;47.270;11.368;2022-12-18T01:14:01;14.33;;;5.97;;
68989;SDS011;56046;47.270;11.368;2022-12-18T01:16:27;13.90;;;5.33;;
68989;SDS011;56046;47.270;11.368;2022-12-18T01:18:52;15.40;;;5.70;;
68989;SDS011;56046;47.270;11.368;2022-12-18T01:21:19;15.18;;;5.93;;
68989;SDS011;56046;47.270;11.368;2022-12-18T01:23:44;15.00;;;6.13;;
68989;SDS011;56046;47.270;11.368;2022-12-18T01:26:11;15.18;;;5.53;;
68989;SDS011;56046;47.270;11.368;2022-12-18T01:28:37;14.77;;;5.97;;
68989;SDS011;56046;47.270;11.368;2022-12-18T01:31:09;15.03;;;5.80;;
68989;SDS011;56046;47.270;11.368;2022-12-18T01:33:34;13.88;;;4.97;;
68989;SDS011;56046;47.270;11.368;2022-12-18T01:36:00;14.50;;;5.13;;
68989;SDS011;56046;47.270;11.368;2022-12-18T01:38:25;14.80;;;5.53;;
68989;SDS011;56046;47.270;11.368;2022-12-18T01:40:56;13.97;;;5.80;;
68989;SDS011;56046;47.270;11.368;2022-12-18T01:43:21;16.90;;;6.53;;
68989;SDS011;56046;47.270;11.368;2022-12-18T01:45:46;15.50;;;5.68;;
68989;SDS011;56046;47.270;11.368;2022-12-18T01:48:12;14.10;;;5.22;;
68989;SDS011;56046;47.270;11.368;2022-12-18T01:50:38;13.88;;;5.15;;
68989;SDS011;56046;47.270;11.368;2022-12-18T01:55:46;14.65;;;5.38;;
68989;SDS011;56046;47.270;11.368;2022-12-18T01:58:12;12.60;;;4.47;;
68989;SDS011;56046;47.270;11.368;2022-12-18T02:00:37;14.13;;;5.07;;
68989;SDS011;56046;47.270;11.368;2022-12-18T02:03:02;12.90;;;5.17;;
68989;SDS011;56046;47.270;11.368;2022-12-18T02:13:32;12.82;;;4.78;;
68989;SDS011;56046;47.270;11.368;2022-12-18T02:18:31;13.95;;;5.20;;
68989;SDS011;56046;47.270;11.368;2022-12-18T02:21:04;14.40;;;4.57;;
68989;SDS011;56046;47.270;11.368;2022-12-18T02:26:11;12.23;;;5.10;;
68989;SDS011;56046;47.270;11.368;2022-12-18T02:28:40;13.77;;;4.82;;
68989;SDS011;56046;47.270;11.368;2022-12-18T02:31:07;16.07;;;5.33;;
68989;SDS011;56046;47.270;11.368;2022-12-18T02:33:34;11.82;;;4.38;;
68989;SDS011;56046;47.270;11.368;2022-12-18T02:36:00;14.75;;;5.15;;
68989;SDS011;56046;47.270;11.368;2022-12-18T02:38:26;15.82;;;5.05;;
68989;SDS011;56046;47.270;11.368;2022-12-18T02:40:53;11.77;;;4.20;;
68989;SDS011;56046;47.270;11.368;2022-12-18T02:43:18;12.80;;;5.00;;
68989;SDS011;56046;47.270;11.368;2022-12-18T02:45:50;14.27;;;5.30;;
68989;SDS011;56046;47.270;11.368;2022-12-18T02:48:17;10.98;;;4.75;;
68989;SDS011;56046;47.270;11.368;2022-12-18T02:50:45;12.98;;;5.05;;
68989;SDS011;56046;47.270;11.368;2022-12-18T03:00:59;10.82;;;4.70;;
68989;SDS011;56046;47.270;11.368;2022-12-18T03:03:27;16.35;;;5.88;;
68989;SDS011;56046;47.270;11.368;2022-12-18T03:08:34;15.20;;;5.15;;
68989;SDS011;56046;47.270;11.368;2022-12-18T03:11:02;17.03;;;5.00;;
68989;SDS011;56046;47.270;11.368;2022-12-18T03:13:31;14.32;;;5.03;;
68989;SDS011;56046;47.270;11.368;2022-12-18T03:15:58;17.45;;;6.10;;
68989;SDS011;56046;47.270;11.368;2022-12-18T03:18:29;18.08;;;6.03;;
68989;SDS011;56046;47.270;11.368;2022-12-18T03:20:58;14.73;;;6.10;;
68989;SDS011;56046;47.270;11.368;2022-12-18T03:23:25;16.73;;;6.20;;
68989;SDS011;56046;47.270;11.368;2022-12-18T03:25:53;20.10;;;6.13;;
68989;SDS011;56046;47.270;11.368;2022-12-18T03:28:20;16.58;;;6.40;;
68989;SDS011;56046;47.270;11.368;2022-12-18T03:30:46;18.55;;;6.13;;
68989;SDS011;56046;47.270;11.368;2022-12-18T03:33:19;18.40;;;6.57;;
68989;SDS011;56046;47.270;11.368;2022-12-18T03:35:49;17.08;;;6.47;;
68989;SDS011;56046;47.270;11.368;2022-12-18T03:38:14;17.45;;;5.97;;
68989;SDS011;56046;47.270;11.368;2022-12-18T03:43:50;16.17;;;5.13;;
68989;SDS011;56046;47.270;11.368;2022-12-18T03:46:02;16.15;;;5.18;;
68989;SDS011;56046;47.270;11.368;2022-12-18T03:48:31;15.75;;;5.07;;
68989;SDS011;56046;47.270;11.368;2022-12-18T03:51:08;18.60;;;6.82;;
68989;SDS011;56046;47.270;11.368;2022-12-18T03:56:00;16.43;;;6.20;;
68989;SDS011;56046;47.270;11.368;2022-12-18T03:58:26;17.20;;;5.87;;
68989;SDS011;56046;47.270;11.368;2022-12-18T04:00:53;15.20;;;5.13;;
68989;SDS011;56046;47.270;11.368;2022-12-18T04:03:20;17.80;;;5.90;;
68989;SDS011;56046;47.270;11.368;2022-12-18T04:05:48;17.70;;;5.80;;
68989;SDS011;56046;47.270;11.368;2022-12-18T04:08:15;15.80;;;6.47;;
68989;SDS011;56046;47.270;11.368;2022-12-18T04:10:40;19.80;;;6.50;;
68989;SDS011;56046;47.270;11.368;2022-12-18T04:13:06;15.57;;;6.53;;
68989;SDS011;56046;47.270;11.368;2022-12-18T04:15:33;13.73;;;5.03;;
68989;SDS011;56046;47.270;11.368;2022-12-18T04:17:59;16.08;;;5.57;;
68989;SDS011;56046;47.270;11.368;2022-12-18T04:20:24;15.33;;;5.57;;
68989;SDS011;56046;47.270;11.368;2022-12-18T04:22:49;13.23;;;5.67;;
68989;SDS011;56046;47.270;11.368;2022-12-18T04:25:15;13.07;;;4.73;;
68989;SDS011;56046;47.270;11.368;2022-12-18T04:27:40;13.67;;;5.60;;
68989;SDS011;56046;47.270;11.368;2022-12-18T04:30:05;13.50;;;5.53;;
68989;SDS011;56046;47.270;11.368;2022-12-18T04:32:32;17.07;;;6.10;;
68989;SDS011;56046;47.270;11.368;2022-12-18T04:34:58;13.30;;;5.63;;
68989;SDS011;56046;47.270;11.368;2022-12-18T04:37:23;12.47;;;4.70;;
68989;SDS011;56046;47.270;11.368;2022-12-18T04:39:48;17.27;;;6.13;;
68989;SDS011;56046;47.270;11.368;2022-12-18T04:42:13;15.57;;;6.00;;
68989;SDS011;56046;47.270;11.368;2022-12-18T04:44:39;12.03;;;4.87;;
68989;SDS011;56046;47.270;11.368;2022-12-18T04:47:04;15.53;;;5.77;;
68989;SDS011;56046;47.270;11.368;2022-12-18T04:49:29;13.40;;;4.60;;
68989;SDS011;56046;47.270;11.368;2022-12-18T04:51:54;13.67;;;4.47;;
68989;SDS011;56046;47.270;11.368;2022-12-18T04:54:20;13.43;;;5.43;;
68989;SDS011;56046;47.270;11.368;2022-12-18T04:56:45;14.67;;;5.43;;
68989;SDS011;56046;47.270;11.368;2022-12-18T04:59:10;13.17;;;5.10;;
68989;SDS011;56046;47.270;11.368;2022-12-18T05:01:36;14.90;;;5.10;;
68989;SDS011;56046;47.270;11.368;2022-12-18T05:04:01;14.47;;;5.97;;
68989;SDS011;56046;47.270;11.368;2022-12-18T05:06:26;10.60;;;4.65;;
68989;SDS011;56046;47.270;11.368;2022-12-18T05:08:52;13.70;;;4.90;;
68989;SDS011;56046;47.270;11.368;2022-12-18T05:11:17;13.00;;;5.20;;
68989;SDS011;56046;47.270;11.368;2022-12-18T05:13:43;13.17;;;4.97;;
68989;SDS011;56046;47.270;11.368;2022-12-18T05:16:09;14.13;;;4.82;;
68989;SDS011;56046;47.270;11.368;2022-12-18T05:18:34;14.70;;;4.83;;
68989;SDS011;56046;47.270;11.368;2022-12-18T05:21:00;13.13;;;4.87;;
68989;SDS011;56046;47.270;11.368;2022-12-18T05:23:25;14.67;;;4.83;;
68989;SDS011;56046;47.270;11.368;2022-12-18T05:25:51;14.53;;;5.30;;
68989;SDS011;56046;47.270;11.368;2022-12-18T05:28:17;15.00;;;5.18;;
68989;SDS011;56046;47.270;11.368;2022-12-18T05:30:42;16.07;;;4.93;;
68989;SDS011;56046;47.270;11.368;2022-12-18T05:33:07;14.83;;;4.67;;
68989;SDS011;56046;47.270;11.368;2022-12-18T05:35:32;13.73;;;4.97;;
68989;SDS011;56046;47.270;11.368;2022-12-18T05:37:58;15.13;;;5.70;;
68989;SDS011;56046;47.270;11.368;2022-12-18T05:40:23;13.17;;;4.57;;
68989;SDS011;56046;47.270;11.368;2022-12-18T05:42:48;14.47;;;5.17;;
68989;SDS011;56046;47.270;11.368;2022-12-18T05:45:13;13.90;;;4.87;;
68989;SDS011;56046;47.270;11.368;2022-12-18T05:47:39;13.23;;;4.47;;
68989;SDS011;56046;47.270;11.368;2022-12-18T05:50:04;14.20;;;4.83;;
68989;SDS011;56046;47.270;11.368;2022-12-18T05:52:30;12.00;;;4.53;;
68989;SDS011;56046;47.270;11.368;2022-12-18T05:54:55;11.15;;;4.90;;
68989;SDS011;56046;47.270;11.368;2022-12-18T05:57:20;11.57;;;4.43;;
68989;SDS011;56046;47.270;11.368;2022-12-18T05:59:46;13.93;;;4.73;;
68989;SDS011;56046;47.270;11.368;2022-12-18T06:02:11;11.33;;;4.30;;
68989;SDS011;56046;47.270;11.368;2022-12-18T06:04:36;15.83;;;4.00;;
68989;SDS011;56046;47.270;11.368;2022-12-18T06:07:03;11.53;;;4.10;;
68989;SDS011;56046;47.270;11.368;2022-12-18T06:09:28;11.27;;;3.97;;
68989;SDS011;56046;47.270;11.368;2022-12-18T06:11:54;11.20;;;3.28;;
68989;SDS011;56046;47.270;11.368;2022-12-18T06:14:19;11.50;;;4.20;;
68989;SDS011;56046;47.270;11.368;2022-12-18T06:16:44;10.97;;;3.50;;
68989;SDS011;56046;47.270;11.368;2022-12-18T06:19:12;9.17;;;3.43;;
68989;SDS011;56046;47.270;11.368;2022-12-18T06:21:38;11.00;;;3.70;;
68989;SDS011;56046;47.270;11.368;2022-12-18T06:24:03;8.97;;;3.87;;
68989;SDS011;56046;47.270;11.368;2022-12-18T06:26:29;9.60;;;3.60;;
68989;SDS011;56046;47.270;11.368;2022-12-18T06:28:54;9.43;;;3.10;;
68989;SDS011;56046;47.270;11.368;2022-12-18T06:31:19;11.47;;;3.47;;
68989;SDS011;56046;47.270;11.368;2022-12-18T06:33:45;11.73;;;4.50;;
68989;SDS011;56046;47.270;11.368;2022-12-18T06:36:11;10.07;;;3.50;;
68989;SDS011;56046;47.270;11.368;2022-12-18T06:38:41;11.05;;;3.88;;
68989;SDS011;56046;47.270;11.368;2022-12-18T06:41:11;8.77;;;2.80;;
68989;SDS011;56046;47.270;11.368;2022-12-18T06:43:36;11.23;;;2.65;;
68989;SDS011;56046;47.270;11.368;2022-12-18T06:46:02;10.87;;;3.50;;
68989;SDS011;56046;47.270;11.368;2022-12-18T06:48:28;8.13;;;3.00;;
68989;SDS011;56046;47.270;11.368;2022-12-18T06:50:53;8.53;;;3.10;;
68989;SDS011;56046;47.270;11.368;2022-12-18T06:53:18;8.80;;;2.60;;
68989;SDS011;56046;47.270;11.368;2022-12-18T06:55:43;8.23;;;2.50;;
68989;SDS011;56046;47.270;11.368;2022-12-18T06:58:09;10.07;;;4.20;;
68989;SDS011;56046;47.270;11.368;2022-12-18T07:00:34;16.17;;;5.63;;
68989;SDS011;56046;47.270;11.368;2022-12-18T07:02:59;13.17;;;5.47;;
68989;SDS011;56046;47.270;11.368;2022-12-18T07:05:24;13.70;;;4.60;;
68989;SDS011;56046;47.270;11.368;2022-12-18T07:07:50;13.57;;;4.63;;
68989;SDS011;56046;47.270;11.368;2022-12-18T07:10:15;11.17;;;4.73;;
68989;SDS011;56046;47.270;11.368;2022-12-18T07:12:40;12.57;;;4.37;;
68989;SDS011;56046;47.270;11.368;2022-12-18T07:15:06;9.87;;;3.60;;
68989;SDS011;56046;47.270;11.368;2022-12-18T07:17:31;13.45;;;3.80;;
68989;SDS011;56046;47.270;11.368;2022-12-18T07:19:57;8.17;;;3.77;;
68989;SDS011;56046;47.270;11.368;2022-12-18T07:22:22;8.87;;;3.70;;
68989;SDS011;56046;47.270;11.368;2022-12-18T07:24:47;9.43;;;3.90;;
68989;SDS011;56046;47.270;11.368;2022-12-18T07:27:14;9.38;;;3.22;;
68989;SDS011;56046;47.270;11.368;2022-12-18T07:29:39;9.60;;;3.40;;
68989;SDS011;56046;47.270;11.368;2022-12-18T07:32:04;10.00;;;3.60;;
68989;SDS011;56046;47.270;11.368;2022-12-18T07:34:29;16.57;;;7.07;;
68989;SDS011;56046;47.270;11.368;2022-12-18T07:36:55;17.00;;;7.53;;
68989;SDS011;56046;47.270;11.368;2022-12-18T07:39:20;8.10;;;3.50;;
68989;SDS011;56046;47.270;11.368;2022-12-18T07:41:45;10.73;;;5.27;;
68989;SDS011;56046;47.270;11.368;2022-12-18T07:44:30;17.63;;;9.20;;
68989;SDS011;56046;47.270;11.368;2022-12-18T07:46:56;15.43;;;7.28;;
68989;SDS011;56046;47.270;11.368;2022-12-18T07:49:21;13.15;;;7.22;;
68989;SDS011;56046;47.270;11.368;2022-12-18T07:51:46;10.05;;;4.30;;
68989;SDS011;56046;47.270;11.368;2022-12-18T07:54:14;8.98;;;3.58;;
68989;SDS011;56046;47.270;11.368;2022-12-18T07:56:39;29.70;;;12.23;;
68989;SDS011;56046;47.270;11.368;2022-12-18T07:59:04;11.13;;;4.70;;
68989;SDS011;56046;47.270;11.368;2022-12-18T08:01:29;9.43;;;3.40;;
68989;SDS011;56046;47.270;11.368;2022-12-18T08:03:55;10.37;;;3.10;;
68989;SDS011;56046;47.270;11.368;2022-12-18T08:06:20;8.30;;;2.97;;
68989;SDS011;56046;47.270;11.368;2022-12-18T08:08:46;8.70;;;2.20;;
68989;SDS011;56046;47.270;11.368;2022-12-18T08:11:11;7.27;;;2.33;;
68989;SDS011;56046;47.270;11.368;2022-12-18T08:13:36;7.40;;;3.20;;
68989;SDS011;56046;47.270;11.368;2022-12-18T08:16:03;11.10;;;3.90;;
68989;SDS011;56046;47.270;11.368;2022-12-18T08:18:28;12.70;;;5.38;;
68989;SDS011;56046;47.270;11.368;2022-12-18T08:20:54;15.23;;;5.73;;
68989;SDS011;56046;47.270;11.368;2022-12-18T08:23:19;15.00;;;6.40;;
68989;SDS011;56046;47.270;11.368;2022-12-18T08:25:45;15.70;;;6.03;;
68989;SDS011;56046;47.270;11.368;2022-12-18T08:28:10;11.10;;;5.10;;
68989;SDS011;56046;47.270;11.368;2022-12-18T08:30:35;11.88;;;4.50;;
68989;SDS011;56046;47.270;11.368;2022-12-18T08:33:01;11.40;;;4.50;;
68989;SDS011;56046;47.270;11.368;2022-12-18T08:35:26;10.87;;;4.67;;
68989;SDS011;56046;47.270;11.368;2022-12-18T08:37:52;12.10;;;4.90;;
68989;SDS011;56046;47.270;11.368;2022-12-18T08:40:17;13.20;;;5.07;;
68989;SDS011;56046;47.270;11.368;2022-12-18T08:42:42;10.83;;;5.20;;
68989;SDS011;56046;47.270;11.368;2022-12-18T08:45:26;11.57;;;5.30;;
68989;SDS011;56046;47.270;11.368;2022-12-18T08:47:51;9.63;;;3.93;;
68989;SDS011;56046;47.270;11.368;2022-12-18T08:50:16;9.20;;;4.20;;
68989;SDS011;56046;47.270;11.368;2022-12-18T08:52:42;10.53;;;3.90;;
68989;SDS011;56046;47.270;11.368;2022-12-18T08:55:07;10.00;;;3.93;;
68989;SDS011;56046;47.270;11.368;2022-12-18T08:57:33;10.13;;;4.55;;
68989;SDS011;56046;47.270;11.368;2022-12-18T08:59:58;14.67;;;5.50;;
68989;SDS011;56046;47.270;11.368;2022-12-18T09:02:23;10.13;;;4.40;;
68989;SDS011;56046;47.270;11.368;2022-12-18T09:04:49;9.37;;;3.77;;
68989;SDS011;56046;47.270;11.368;2022-12-18T09:07:14;7.33;;;3.13;;
68989;SDS011;56046;47.270;11.368;2022-12-18T09:09:39;6.80;;;2.87;;
68989;SDS011;56046;47.270;11.368;2022-12-18T09:12:04;8.23;;;3.43;;
68989;SDS011;56046;47.270;11.368;2022-12-18T09:14:30;8.77;;;3.77;;
68989;SDS011;56046;47.270;11.368;2022-12-18T09:16:55;10.40;;;4.43;;
68989;SDS011;56046;47.270;11.368;2022-12-18T09:19:20;9.80;;;3.97;;
68989;SDS011;56046;47.270;11.368;2022-12-18T09:21:45;9.80;;;4.33;;
68989;SDS011;56046;47.270;11.368;2022-12-18T09:24:13;10.37;;;4.80;;
68989;SDS011;56046;47.270;11.368;2022-12-18T09:26:39;10.15;;;3.42;;
68989;SDS011;56046;47.270;11.368;2022-12-18T09:29:04;10.83;;;4.27;;
68989;SDS011;56046;47.270;11.368;2022-12-18T09:31:32;11.97;;;4.50;;
68989;SDS011;56046;47.270;11.368;2022-12-18T09:33:57;10.68;;;4.55;;
68989;SDS011;56046;47.270;11.368;2022-12-18T09:36:22;11.10;;;4.40;;
68989;SDS011;56046;47.270;11.368;2022-12-18T09:38:47;10.63;;;4.20;;
68989;SDS011;56046;47.270;11.368;2022-12-18T09:41:33;10.20;;;4.73;;
68989;SDS011;56046;47.270;11.368;2022-12-18T09:44:01;10.80;;;4.37;;
68989;SDS011;56046;47.270;11.368;2022-12-18T09:46:38;9.88;;;4.53;;
68989;SDS011;56046;47.270;11.368;2022-12-18T09:49:05;9.15;;;4.45;;
68989;SDS011;56046;47.270;11.368;2022-12-18T09:51:34;9.88;;;3.75;;
68989;SDS011;56046;47.270;11.368;2022-12-18T09:54:05;11.50;;;3.88;;
68989;SDS011;56046;47.270;11.368;2022-12-18T09:56:35;9.23;;;4.30;;
68989;SDS011;56046;47.270;11.368;2022-12-18T09:59:02;10.18;;;3.65;;
68989;SDS011;56046;47.270;11.368;2022-12-18T10:01:28;10.63;;;3.83;;
68989;SDS011;56046;47.270;11.368;2022-12-18T10:03:54;9.90;;;4.05;;
68989;SDS011;56046;47.270;11.368;2022-12-18T10:06:35;9.40;;;3.03;;
68989;SDS011;56046;47.270;11.368;2022-12-18T10:09:05;8.23;;;3.65;;
68989;SDS011;56046;47.270;11.368;2022-12-18T10:14:34;9.38;;;3.67;;
68989;SDS011;56046;47.270;11.368;2022-12-18T10:19:49;8.07;;;3.00;;
68989;SDS011;56046;47.270;11.368;2022-12-18T10:27:16;7.88;;;3.47;;
68989;SDS011;56046;47.270;11.368;2022-12-18T10:29:45;8.70;;;3.67;;
68989;SDS011;56046;47.270;11.368;2022-12-18T10:32:14;7.70;;;3.05;;
68989;SDS011;56046;47.270;11.368;2022-12-18T10:34:40;7.97;;;3.50;;
68989;SDS011;56046;47.270;11.368;2022-12-18T10:37:06;9.43;;;3.10;;
68989;SDS011;56046;47.270;11.368;2022-12-18T10:39:31;10.48;;;3.03;;
68989;SDS011;56046;47.270;11.368;2022-12-18T10:42:10;8.17;;;3.00;;
68989;SDS011;56046;47.270;11.368;2022-12-18T10:44:36;6.78;;;3.00;;
68989;SDS011;56046;47.270;11.368;2022-12-18T10:47:06;8.20;;;3.43;;
68989;SDS011;56046;47.270;11.368;2022-12-18T10:49:35;6.03;;;2.60;;
68989;SDS011;56046;47.270;11.368;2022-12-18T10:52:14;7.03;;;2.60;;
68989;SDS011;56046;47.270;11.368;2022-12-18T10:54:45;6.55;;;2.95;;
68989;SDS011;56046;47.270;11.368;2022-12-18T10:59:52;9.65;;;4.70;;
68989;SDS011;56046;47.270;11.368;2022-12-18T11:04:52;9.77;;;3.20;;
68989;SDS011;56046;47.270;11.368;2022-12-18T11:07:18;8.73;;;3.15;;
68989;SDS011;56046;47.270;11.368;2022-12-18T11:09:43;10.10;;;3.63;;
68989;SDS011;56046;47.270;11.368;2022-12-18T11:12:18;8.73;;;3.57;;
68989;SDS011;56046;47.270;11.368;2022-12-18T11:14:45;8.40;;;3.22;;
68989;SDS011;56046;47.270;11.368;2022-12-18T11:17:21;7.40;;;3.30;;
68989;SDS011;56046;47.270;11.368;2022-12-18T11:19:57;6.60;;;2.67;;
68989;SDS011;56046;47.270;11.368;2022-12-18T11:22:27;9.35;;;2.95;;
68989;SDS011;56046;47.270;11.368;2022-12-18T11:24:54;8.45;;;2.53;;
68989;SDS011;56046;47.270;11.368;2022-12-18T11:27:19;8.98;;;3.00;;
68989;SDS011;56046;47.270;11.368;2022-12-18T11:29:45;7.18;;;3.17;;
68989;SDS011;56046;47.270;11.368;2022-12-18T11:35:01;8.50;;;2.70;;
68989;SDS011;56046;47.270;11.368;2022-12-18T11:37:27;7.45;;;2.60;;
68989;SDS011;56046;47.270;11.368;2022-12-18T11:40:06;9.45;;;3.38;;
68989;SDS011;56046;47.270;11.368;2022-12-18T11:42:35;7.55;;;2.58;;
68989;SDS011;56046;47.270;11.368;2022-12-18T11:50:31;6.47;;;2.40;;
68989;SDS011;56046;47.270;11.368;2022-12-18T11:52:54;6.10;;;2.22;;
68989;SDS011;56046;47.270;11.368;2022-12-18T11:55:31;10.47;;;2.53;;
68989;SDS011;56046;47.270;11.368;2022-12-18T12:00:39;7.07;;;1.48;;
68989;SDS011;56046;47.270;11.368;2022-12-18T12:26:10;6.35;;;2.13;;
68989;SDS011;56046;47.270;11.368;2022-12-18T12:31:26;5.60;;;2.40;;
68989;SDS011;56046;47.270;11.368;2022-12-18T12:34:01;5.83;;;2.47;;
68989;SDS011;56046;47.270;11.368;2022-12-18T12:39:05;6.93;;;2.20;;
68989;SDS011;56046;47.270;11.368;2022-12-18T12:41:31;4.53;;;1.90;;
68989;SDS011;56046;47.270;11.368;2022-12-18T12:44:18;8.40;;;2.28;;
68989;SDS011;56046;47.270;11.368;2022-12-18T12:46:44;7.50;;;2.40;;
68989;SDS011;56046;47.270;11.368;2022-12-18T12:49:17;7.32;;;2.33;;
68989;SDS011;56046;47.270;11.368;2022-12-18T12:51:44;8.60;;;2.17;;
68989;SDS011;56046;47.270;11.368;2022-12-18T12:54:21;10.27;;;2.77;;
68989;SDS011;56046;47.270;11.368;2022-12-18T12:56:59;9.80;;;2.70;;
68989;SDS011;56046;47.270;11.368;2022-12-18T12:59:47;5.75;;;2.35;;
68989;SDS011;56046;47.270;11.368;2022-12-18T13:02:20;6.78;;;2.72;;
68989;SDS011;56046;47.270;11.368;2022-12-18T13:04:49;6.45;;;2.63;;
68989;SDS011;56046;47.270;11.368;2022-12-18T13:07:26;6.87;;;2.40;;
68989;SDS011;56046;47.270;11.368;2022-12-18T13:12:36;8.38;;;3.20;;
68989;SDS011;56046;47.270;11.368;2022-12-18T13:15:21;7.57;;;2.42;;
68989;SDS011;56046;47.270;11.368;2022-12-18T13:17:47;7.65;;;2.45;;
68989;SDS011;56046;47.270;11.368;2022-12-18T13:20:12;7.93;;;2.30;;
68989;SDS011;56046;47.270;11.368;2022-12-18T13:28:01;8.13;;;2.75;;
68989;SDS011;56046;47.270;11.368;2022-12-18T13:35:39;6.93;;;2.43;;
68989;SDS011;56046;47.270;11.368;2022-12-18T13:38:19;9.20;;;2.65;;
68989;SDS011;56046;47.270;11.368;2022-12-18T13:46:06;10.93;;;3.47;;
68989;SDS011;56046;47.270;11.368;2022-12-18T13:48:31;8.73;;;2.73;;
68989;SDS011;56046;47.270;11.368;2022-12-18T13:53:24;6.78;;;2.80;;
68989;SDS011;56046;47.270;11.368;2022-12-18T13:55:51;6.55;;;2.60;;
68989;SDS011;56046;47.270;11.368;2022-12-18T13:58:16;7.23;;;2.60;;
68989;SDS011;56046;47.270;11.368;2022-12-18T14:00:42;7.77;;;2.50;;
68989;SDS011;56046;47.270;11.368;2022-12-18T14:03:21;6.80;;;2.42;;
68989;SDS011;56046;47.270;11.368;2022-12-18T14:05:52;7.97;;;2.88;;
68989;SDS011;56046;47.270;11.368;2022-12-18T14:08:17;7.93;;;2.57;;
68989;SDS011;56046;47.270;11.368;2022-12-18T14:10:46;9.55;;;2.72;;
68989;SDS011;56046;47.270;11.368;2022-12-18T14:13:15;9.30;;;3.53;;
68989;SDS011;56046;47.270;11.368;2022-12-18T14:15:42;6.78;;;3.17;;
68989;SDS011;56046;47.270;11.368;2022-12-18T14:20:52;6.82;;;2.72;;
68989;SDS011;56046;47.270;11.368;2022-12-18T14:25:50;9.13;;;3.37;;
68989;SDS011;56046;47.270;11.368;2022-12-18T14:28:15;11.57;;;5.57;;
68989;SDS011;56046;47.270;11.368;2022-12-18T14:30:42;8.13;;;3.25;;
68989;SDS011;56046;47.270;11.368;2022-12-18T14:35:43;10.27;;;3.10;;
68989;SDS011;56046;47.270;11.368;2022-12-18T14:38:27;8.63;;;3.25;;
68989;SDS011;56046;47.270;11.368;2022-12-18T14:40:53;8.68;;;3.08;;
68989;SDS011;56046;47.270;11.368;2022-12-18T14:43:19;7.23;;;2.80;;
68989;SDS011;56046;47.270;11.368;2022-12-18T14:45:45;8.45;;;3.53;;
68989;SDS011;56046;47.270;11.368;2022-12-18T14:50:36;8.38;;;3.58;;
68989;SDS011;56046;47.270;11.368;2022-12-18T14:53:02;8.32;;;2.53;;
68989;SDS011;56046;47.270;11.368;2022-12-18T14:55:27;7.47;;;2.97;;
68989;SDS011;56046;47.270;11.368;2022-12-18T14:57:53;12.00;;;2.83;;
68989;SDS011;56046;47.270;11.368;2022-12-18T15:00:21;12.65;;;3.38;;
68989;SDS011;56046;47.270;11.368;2022-12-18T15:02:50;7.87;;;3.80;;
68989;SDS011;56046;47.270;11.368;2022-12-18T15:07:46;11.02;;;3.75;;
68989;SDS011;56046;47.270;11.368;2022-12-18T15:10:14;9.93;;;4.25;;
68989;SDS011;56046;47.270;11.368;2022-12-18T15:18:01;11.80;;;3.17;;
68989;SDS011;56046;47.270;11.368;2022-12-18T15:20:27;8.40;;;3.83;;
68989;SDS011;56046;47.270;11.368;2022-12-18T15:22:53;12.27;;;4.10;;
68989;SDS011;56046;47.270;11.368;2022-12-18T15:27:56;12.05;;;4.68;;
68989;SDS011;56046;47.270;11.368;2022-12-18T15:30:22;9.83;;;4.07;;
68989;SDS011;56046;47.270;11.368;2022-12-18T15:32:48;12.35;;;4.55;;
68989;SDS011;56046;47.270;11.368;2022-12-18T15:37:40;17.67;;;6.33;;
68989;SDS011;56046;47.270;11.368;2022-12-18T15:40:06;19.13;;;7.68;;
68989;SDS011;56046;47.270;11.368;2022-12-18T15:42:32;17.90;;;7.90;;
68989;SDS011;56046;47.270;11.368;2022-12-18T15:45:17;18.35;;;7.05;;
68989;SDS011;56046;47.270;11.368;2022-12-18T15:47:43;28.30;;;8.80;;
68989;SDS011;56046;47.270;11.368;2022-12-18T15:50:08;17.00;;;7.47;;
68989;SDS011;56046;47.270;11.368;2022-12-18T15:52:47;20.43;;;9.50;;
68989;SDS011;56046;47.270;11.368;2022-12-18T15:55:16;13.02;;;5.78;;
68989;SDS011;56046;47.270;11.368;2022-12-18T15:58:00;11.98;;;3.65;;
68989;SDS011;56046;47.270;11.368;2022-12-18T16:00:25;11.63;;;6.13;;
68989;SDS011;56046;47.270;11.368;2022-12-18T16:02:51;15.20;;;7.18;;
68989;SDS011;56046;47.270;11.368;2022-12-18T16:05:18;14.75;;;6.88;;
68989;SDS011;56046;47.270;11.368;2022-12-18T16:07:46;11.82;;;5.68;;
68989;SDS011;56046;47.270;11.368;2022-12-18T16:10:12;7.18;;;2.65;;
68989;SDS011;56046;47.270;11.368;2022-12-18T16:12:38;9.82;;;3.92;;
68989;SDS011;56046;47.270;11.368;2022-12-18T16:15:04;26.33;;;12.10;;
68989;SDS011;56046;47.270;11.368;2022-12-18T16:17:30;24.08;;;12.43;;
68989;SDS011;56046;47.270;11.368;2022-12-18T16:19:56;15.00;;;7.93;;
68989;SDS011;56046;47.270;11.368;2022-12-18T16:22:23;18.77;;;6.90;;
68989;SDS011;56046;47.270;11.368;2022-12-18T16:24:49;13.43;;;5.60;;
68989;SDS011;56046;47.270;11.368;2022-12-18T16:27:15;13.15;;;7.10;;
68989;SDS011;56046;47.270;11.368;2022-12-18T16:29:41;44.17;;;14.00;;
68989;SDS011;56046;47.270;11.368;2022-12-18T16:32:06;18.73;;;6.20;;
68989;SDS011;56046;47.270;11.368;2022-12-18T16:34:34;10.60;;;3.87;;
68989;SDS011;56046;47.270;11.368;2022-12-18T16:37:00;7.55;;;3.08;;